sensor_id;sensor_type;location;lat;lon;timestamp;temperature;humidity
75190;HTU21D;69198;44.694;37.790;2023-09-08T00:00:03;20.73;59.91
75190;HTU21D;69198;44.694;37.790;2023-09-08T00:01:05;20.74;60.16
75190;HTU21D;69198;44.694;37.790;2023-09-08T00:02:06;20.73;60.67
75190;HTU21D;69198;44.694;37.790;2023-09-08T00:03:07;20.74;59.68
75190;HTU21D;69198;44.694;37.790;2023-09-08T00:04:08;20.72;59.65
75190;HTU21D;69198;44.694;37.790;2023-09-08T00:05:09;20.69;60.68
75190;HTU21D;69198;44.694;37.790;2023-09-08T00:06:11;20.66;60.10
75190;HTU21D;69198;44.694;37.790;2023-09-08T00:07:12;20.68;60.21
75190;HTU21D;69198;44.694;37.790;2023-09-08T00:08:13;20.69;60.33
75190;HTU21D;69198;44.694;37.790;2023-09-08T00:09:14;20.66;59.75
75190;HTU21D;69198;44.694;37.790;2023-09-08T00:10:15;20.65;60.03
75190;HTU21D;69198;44.694;37.790;2023-09-08T00:11:16;20.60;59.87
75190;HTU21D;69198;44.694;37.790;2023-09-08T00:12:17;20.59;59.65
75190;HTU21D;69198;44.694;37.790;2023-09-08T00:13:18;20.59;60.07
75190;HTU21D;69198;44.694;37.790;2023-09-08T00:14:20;20.59;59.73
75190;HTU21D;69198;44.694;37.790;2023-09-08T00:15:20;20.60;59.83
75190;HTU21D;69198;44.694;37.790;2023-09-08T00:16:21;20.62;60.31
75190;HTU21D;69198;44.694;37.790;2023-09-08T00:17:23;20.59;59.28
75190;HTU21D;69198;44.694;37.790;2023-09-08T00:18:24;20.59;58.98
75190;HTU21D;69198;44.694;37.790;2023-09-08T00:19:25;20.56;59.55
75190;HTU21D;69198;44.694;37.790;2023-09-08T00:20:26;20.56;58.62
75190;HTU21D;69198;44.694;37.790;2023-09-08T00:21:27;20.58;57.68
75190;HTU21D;69198;44.694;37.790;2023-09-08T00:22:28;20.54;58.16
75190;HTU21D;69198;44.694;37.790;2023-09-08T00:23:29;20.57;59.22
75190;HTU21D;69198;44.694;37.790;2023-09-08T00:24:30;20.54;57.91
75190;HTU21D;69198;44.694;37.790;2023-09-08T00:25:31;20.53;58.78
75190;HTU21D;69198;44.694;37.790;2023-09-08T00:26:32;20.53;58.74
75190;HTU21D;69198;44.694;37.790;2023-09-08T00:27:33;20.50;58.83
75190;HTU21D;69198;44.694;37.790;2023-09-08T00:28:34;20.47;59.15
75190;HTU21D;69198;44.694;37.790;2023-09-08T00:29:35;20.50;59.54
75190;HTU21D;69198;44.694;37.790;2023-09-08T00:30:37;20.48;59.48
75190;HTU21D;69198;44.694;37.790;2023-09-08T00:31:38;20.49;59.02
75190;HTU21D;69198;44.694;37.790;2023-09-08T00:32:39;20.49;58.41
75190;HTU21D;69198;44.694;37.790;2023-09-08T00:33:40;20.48;57.83
75190;HTU21D;69198;44.694;37.790;2023-09-08T00:34:44;20.46;58.09
75190;HTU21D;69198;44.694;37.790;2023-09-08T00:35:48;20.43;58.43
75190;HTU21D;69198;44.694;37.790;2023-09-08T00:36:49;20.46;58.31
75190;HTU21D;69198;44.694;37.790;2023-09-08T00:37:51;20.46;57.72
75190;HTU21D;69198;44.694;37.790;2023-09-08T00:38:52;20.44;58.15
75190;HTU21D;69198;44.694;37.790;2023-09-08T00:39:53;20.45;58.63
75190;HTU21D;69198;44.694;37.790;2023-09-08T00:40:54;20.44;57.73
75190;HTU21D;69198;44.694;37.790;2023-09-08T00:41:55;20.43;57.72
75190;HTU21D;69198;44.694;37.790;2023-09-08T00:42:57;20.41;57.61
75190;HTU21D;69198;44.694;37.790;2023-09-08T00:43:58;20.37;57.05
75190;HTU21D;69198;44.694;37.790;2023-09-08T00:44:59;20.36;56.42
75190;HTU21D;69198;44.694;37.790;2023-09-08T00:46:00;20.34;57.95
75190;HTU21D;69198;44.694;37.790;2023-09-08T00:47:03;20.34;58.35
75190;HTU21D;69198;44.694;37.790;2023-09-08T00:48:05;20.34;58.19
75190;HTU21D;69198;44.694;37.790;2023-09-08T00:49:06;20.31;58.09
75190;HTU21D;69198;44.694;37.790;2023-09-08T00:50:09;20.32;56.13
75190;HTU21D;69198;44.694;37.790;2023-09-08T00:51:10;20.30;55.48
75190;HTU21D;69198;44.694;37.790;2023-09-08T00:52:12;20.31;57.26
75190;HTU21D;69198;44.694;37.790;2023-09-08T00:53:13;20.31;57.00
75190;HTU21D;69198;44.694;37.790;2023-09-08T00:54:14;20.33;56.87
75190;HTU21D;69198;44.694;37.790;2023-09-08T00:55:16;20.31;58.12
75190;HTU21D;69198;44.694;37.790;2023-09-08T00:56:18;20.29;57.69
75190;HTU21D;69198;44.694;37.790;2023-09-08T00:57:19;20.30;57.10
75190;HTU21D;69198;44.694;37.790;2023-09-08T00:58:20;20.29;55.56
75190;HTU21D;69198;44.694;37.790;2023-09-08T00:59:21;20.21;55.46
75190;HTU21D;69198;44.694;37.790;2023-09-08T01:00:23;20.19;55.51
75190;HTU21D;69198;44.694;37.790;2023-09-08T01:01:24;20.14;55.58
75190;HTU21D;69198;44.694;37.790;2023-09-08T01:02:24;20.13;55.27
75190;HTU21D;69198;44.694;37.790;2023-09-08T01:03:26;20.09;55.00
75190;HTU21D;69198;44.694;37.790;2023-09-08T01:04:27;20.11;55.45
75190;HTU21D;69198;44.694;37.790;2023-09-08T01:05:28;20.10;56.83
75190;HTU21D;69198;44.694;37.790;2023-09-08T01:06:30;20.07;55.81
75190;HTU21D;69198;44.694;37.790;2023-09-08T01:07:33;20.05;56.39
75190;HTU21D;69198;44.694;37.790;2023-09-08T01:08:35;20.04;55.91
75190;HTU21D;69198;44.694;37.790;2023-09-08T01:09:38;20.03;55.90
75190;HTU21D;69198;44.694;37.790;2023-09-08T01:10:40;20.03;56.00
75190;HTU21D;69198;44.694;37.790;2023-09-08T01:11:42;20.02;56.41
75190;HTU21D;69198;44.694;37.790;2023-09-08T01:12:43;19.97;56.36
75190;HTU21D;69198;44.694;37.790;2023-09-08T01:13:44;19.95;56.26
75190;HTU21D;69198;44.694;37.790;2023-09-08T01:14:45;19.91;55.71
75190;HTU21D;69198;44.694;37.790;2023-09-08T01:15:46;19.91;55.87
75190;HTU21D;69198;44.694;37.790;2023-09-08T01:16:48;19.91;55.83
75190;HTU21D;69198;44.694;37.790;2023-09-08T01:17:49;19.88;55.58
75190;HTU21D;69198;44.694;37.790;2023-09-08T01:18:51;19.89;55.83
75190;HTU21D;69198;44.694;37.790;2023-09-08T01:19:55;19.90;56.52
75190;HTU21D;69198;44.694;37.790;2023-09-08T01:23:16;19.82;53.81
75190;HTU21D;69198;44.694;37.790;2023-09-08T01:25:32;19.73;56.36
75190;HTU21D;69198;44.694;37.790;2023-09-08T01:26:38;19.74;56.32
75190;HTU21D;69198;44.694;37.790;2023-09-08T01:27:54;19.72;55.98
75190;HTU21D;69198;44.694;37.790;2023-09-08T01:28:56;19.66;56.10
75190;HTU21D;69198;44.694;37.790;2023-09-08T01:29:59;19.65;55.25
75190;HTU21D;69198;44.694;37.790;2023-09-08T01:31:00;19.60;55.91
75190;HTU21D;69198;44.694;37.790;2023-09-08T01:32:01;19.61;55.32
75190;HTU21D;69198;44.694;37.790;2023-09-08T01:33:05;19.59;56.96
75190;HTU21D;69198;44.694;37.790;2023-09-08T01:34:07;19.61;55.50
75190;HTU21D;69198;44.694;37.790;2023-09-08T01:35:09;19.60;56.12
75190;HTU21D;69198;44.694;37.790;2023-09-08T01:36:10;19.58;56.25
75190;HTU21D;69198;44.694;37.790;2023-09-08T01:37:12;19.54;55.68
75190;HTU21D;69198;44.694;37.790;2023-09-08T01:38:13;19.51;54.99
75190;HTU21D;69198;44.694;37.790;2023-09-08T01:39:14;19.48;54.35
75190;HTU21D;69198;44.694;37.790;2023-09-08T01:40:15;19.44;54.87
75190;HTU21D;69198;44.694;37.790;2023-09-08T01:41:16;19.44;56.00
75190;HTU21D;69198;44.694;37.790;2023-09-08T01:42:18;19.45;56.10
75190;HTU21D;69198;44.694;37.790;2023-09-08T01:43:19;19.43;56.52
75190;HTU21D;69198;44.694;37.790;2023-09-08T01:44:20;19.40;56.15
75190;HTU21D;69198;44.694;37.790;2023-09-08T01:45:21;19.38;55.58
75190;HTU21D;69198;44.694;37.790;2023-09-08T01:46:22;19.37;55.17
75190;HTU21D;69198;44.694;37.790;2023-09-08T01:47:23;19.32;54.39
75190;HTU21D;69198;44.694;37.790;2023-09-08T01:48:24;19.31;53.46
75190;HTU21D;69198;44.694;37.790;2023-09-08T01:49:25;19.26;54.53
75190;HTU21D;69198;44.694;37.790;2023-09-08T01:50:26;19.25;54.28
75190;HTU21D;69198;44.694;37.790;2023-09-08T01:51:27;19.21;54.21
75190;HTU21D;69198;44.694;37.790;2023-09-08T01:52:28;19.18;54.42
75190;HTU21D;69198;44.694;37.790;2023-09-08T01:53:29;19.20;53.95
75190;HTU21D;69198;44.694;37.790;2023-09-08T01:54:30;19.17;54.94
75190;HTU21D;69198;44.694;37.790;2023-09-08T01:55:31;19.17;54.94
75190;HTU21D;69198;44.694;37.790;2023-09-08T01:56:32;19.17;55.13
75190;HTU21D;69198;44.694;37.790;2023-09-08T01:57:33;19.16;54.83
75190;HTU21D;69198;44.694;37.790;2023-09-08T01:58:34;19.14;53.48
75190;HTU21D;69198;44.694;37.790;2023-09-08T01:59:35;19.10;52.95
75190;HTU21D;69198;44.694;37.790;2023-09-08T02:00:38;19.08;53.16
75190;HTU21D;69198;44.694;37.790;2023-09-08T02:01:41;19.06;53.81
75190;HTU21D;69198;44.694;37.790;2023-09-08T02:02:42;19.03;53.58
75190;HTU21D;69198;44.694;37.790;2023-09-08T02:03:43;19.01;53.13
75190;HTU21D;69198;44.694;37.790;2023-09-08T02:04:44;18.98;53.23
75190;HTU21D;69198;44.694;37.790;2023-09-08T02:05:45;18.98;52.43
75190;HTU21D;69198;44.694;37.790;2023-09-08T02:06:46;18.94;52.84
75190;HTU21D;69198;44.694;37.790;2023-09-08T02:07:47;18.89;52.49
75190;HTU21D;69198;44.694;37.790;2023-09-08T02:08:48;18.86;52.33
75190;HTU21D;69198;44.694;37.790;2023-09-08T02:09:49;18.85;52.58
75190;HTU21D;69198;44.694;37.790;2023-09-08T02:10:50;18.84;52.40
75190;HTU21D;69198;44.694;37.790;2023-09-08T02:11:51;18.80;52.44
75190;HTU21D;69198;44.694;37.790;2023-09-08T02:12:52;18.80;52.82
75190;HTU21D;69198;44.694;37.790;2023-09-08T02:13:53;18.80;52.50
75190;HTU21D;69198;44.694;37.790;2023-09-08T02:14:54;18.79;52.05
75190;HTU21D;69198;44.694;37.790;2023-09-08T02:15:56;18.78;51.40
75190;HTU21D;69198;44.694;37.790;2023-09-08T02:16:57;18.76;50.96
75190;HTU21D;69198;44.694;37.790;2023-09-08T02:17:58;18.69;51.48
75190;HTU21D;69198;44.694;37.790;2023-09-08T02:18:59;18.66;52.32
75190;HTU21D;69198;44.694;37.790;2023-09-08T02:20:01;18.68;52.05
75190;HTU21D;69198;44.694;37.790;2023-09-08T02:21:02;18.64;51.45
75190;HTU21D;69198;44.694;37.790;2023-09-08T02:22:03;18.62;51.36
75190;HTU21D;69198;44.694;37.790;2023-09-08T02:23:05;18.59;51.94
75190;HTU21D;69198;44.694;37.790;2023-09-08T02:24:08;18.58;51.60
75190;HTU21D;69198;44.694;37.790;2023-09-08T02:25:10;18.58;51.59
75190;HTU21D;69198;44.694;37.790;2023-09-08T02:26:11;18.56;51.72
75190;HTU21D;69198;44.694;37.790;2023-09-08T02:27:13;18.57;52.15
75190;HTU21D;69198;44.694;37.790;2023-09-08T02:28:14;18.57;51.88
75190;HTU21D;69198;44.694;37.790;2023-09-08T02:29:15;18.54;51.01
75190;HTU21D;69198;44.694;37.790;2023-09-08T02:30:17;18.54;51.00
75190;HTU21D;69198;44.694;37.790;2023-09-08T02:31:18;18.54;51.66
75190;HTU21D;69198;44.694;37.790;2023-09-08T02:32:19;18.54;50.80
75190;HTU21D;69198;44.694;37.790;2023-09-08T02:33:20;18.55;51.07
75190;HTU21D;69198;44.694;37.790;2023-09-08T02:34:21;18.55;51.48
75190;HTU21D;69198;44.694;37.790;2023-09-08T02:35:25;18.54;50.47
75190;HTU21D;69198;44.694;37.790;2023-09-08T02:36:29;18.48;50.29
75190;HTU21D;69198;44.694;37.790;2023-09-08T02:37:31;18.46;50.19
75190;HTU21D;69198;44.694;37.790;2023-09-08T02:38:32;18.46;49.53
75190;HTU21D;69198;44.694;37.790;2023-09-08T02:39:34;18.43;49.02
75190;HTU21D;69198;44.694;37.790;2023-09-08T02:40:35;18.39;49.03
75190;HTU21D;69198;44.694;37.790;2023-09-08T02:41:36;18.34;49.11
75190;HTU21D;69198;44.694;37.790;2023-09-08T02:42:37;18.28;49.21
75190;HTU21D;69198;44.694;37.790;2023-09-08T02:43:38;18.25;49.15
75190;HTU21D;69198;44.694;37.790;2023-09-08T02:44:39;18.21;49.06
75190;HTU21D;69198;44.694;37.790;2023-09-08T02:45:40;18.20;49.00
75190;HTU21D;69198;44.694;37.790;2023-09-08T02:46:41;18.18;49.00
75190;HTU21D;69198;44.694;37.790;2023-09-08T02:47:42;18.15;48.97
75190;HTU21D;69198;44.694;37.790;2023-09-08T02:48:43;18.13;48.95
75190;HTU21D;69198;44.694;37.790;2023-09-08T02:49:44;18.12;48.80
75190;HTU21D;69198;44.694;37.790;2023-09-08T02:50:45;18.10;48.73
75190;HTU21D;69198;44.694;37.790;2023-09-08T02:51:46;18.08;48.75
75190;HTU21D;69198;44.694;37.790;2023-09-08T02:52:47;18.04;48.86
75190;HTU21D;69198;44.694;37.790;2023-09-08T02:53:48;18.05;48.70
75190;HTU21D;69198;44.694;37.790;2023-09-08T02:54:50;17.99;48.86
75190;HTU21D;69198;44.694;37.790;2023-09-08T02:55:51;17.98;48.79
75190;HTU21D;69198;44.694;37.790;2023-09-08T02:56:52;17.96;48.81
75190;HTU21D;69198;44.694;37.790;2023-09-08T02:57:53;17.94;48.79
75190;HTU21D;69198;44.694;37.790;2023-09-08T02:58:54;17.93;48.79
75190;HTU21D;69198;44.694;37.790;2023-09-08T02:59:55;17.90;48.89
75190;HTU21D;69198;44.694;37.790;2023-09-08T03:00:57;17.89;48.89
75190;HTU21D;69198;44.694;37.790;2023-09-08T03:01:59;17.88;48.95
75190;HTU21D;69198;44.694;37.790;2023-09-08T03:03:00;17.91;48.86
75190;HTU21D;69198;44.694;37.790;2023-09-08T03:04:01;17.90;48.86
75190;HTU21D;69198;44.694;37.790;2023-09-08T03:05:04;17.87;48.90
75190;HTU21D;69198;44.694;37.790;2023-09-08T03:06:05;17.87;48.79
75190;HTU21D;69198;44.694;37.790;2023-09-08T03:07:07;17.88;48.81
75190;HTU21D;69198;44.694;37.790;2023-09-08T03:08:08;17.90;48.82
75190;HTU21D;69198;44.694;37.790;2023-09-08T03:09:09;17.91;48.73
75190;HTU21D;69198;44.694;37.790;2023-09-08T03:10:10;17.91;48.67
75190;HTU21D;69198;44.694;37.790;2023-09-08T03:11:12;17.92;48.73
75190;HTU21D;69198;44.694;37.790;2023-09-08T03:12:14;17.90;48.76
75190;HTU21D;69198;44.694;37.790;2023-09-08T03:13:15;17.90;48.82
75190;HTU21D;69198;44.694;37.790;2023-09-08T03:14:18;17.93;48.73
75190;HTU21D;69198;44.694;37.790;2023-09-08T03:15:20;17.93;48.80
75190;HTU21D;69198;44.694;37.790;2023-09-08T03:16:21;17.94;48.71
75190;HTU21D;69198;44.694;37.790;2023-09-08T03:17:22;17.95;48.63
75190;HTU21D;69198;44.694;37.790;2023-09-08T03:18:23;17.97;48.60
75190;HTU21D;69198;44.694;37.790;2023-09-08T03:19:24;18.00;48.51
75190;HTU21D;69198;44.694;37.790;2023-09-08T03:20:26;18.00;48.66
75190;HTU21D;69198;44.694;37.790;2023-09-08T03:21:27;18.00;48.64
75190;HTU21D;69198;44.694;37.790;2023-09-08T03:22:28;18.04;48.53
75190;HTU21D;69198;44.694;37.790;2023-09-08T03:23:29;18.06;48.60
75190;HTU21D;69198;44.694;37.790;2023-09-08T03:24:30;18.17;48.37
75190;HTU21D;69198;44.694;37.790;2023-09-08T03:25:31;18.28;48.18
75190;HTU21D;69198;44.694;37.790;2023-09-08T03:26:33;18.54;47.83
75190;HTU21D;69198;44.694;37.790;2023-09-08T03:27:34;18.80;47.36
75190;HTU21D;69198;44.694;37.790;2023-09-08T03:28:36;19.05;47.01
75190;HTU21D;69198;44.694;37.790;2023-09-08T03:29:38;19.29;46.50
75190;HTU21D;69198;44.694;37.790;2023-09-08T03:30:39;19.52;46.12
75190;HTU21D;69198;44.694;37.790;2023-09-08T03:31:40;19.80;45.70
75190;HTU21D;69198;44.694;37.790;2023-09-08T03:32:41;20.02;45.26
75190;HTU21D;69198;44.694;37.790;2023-09-08T03:33:42;20.25;44.83
75190;HTU21D;69198;44.694;37.790;2023-09-08T03:34:43;20.47;44.25
75190;HTU21D;69198;44.694;37.790;2023-09-08T03:35:44;20.61;43.61
75190;HTU21D;69198;44.694;37.790;2023-09-08T03:36:45;20.72;43.32
75190;HTU21D;69198;44.694;37.790;2023-09-08T03:37:46;20.85;43.00
75190;HTU21D;69198;44.694;37.790;2023-09-08T03:38:47;21.03;42.54
75190;HTU21D;69198;44.694;37.790;2023-09-08T03:39:48;21.22;42.24
75190;HTU21D;69198;44.694;37.790;2023-09-08T03:40:49;21.38;41.56
75190;HTU21D;69198;44.694;37.790;2023-09-08T03:41:51;21.50;41.27
75190;HTU21D;69198;44.694;37.790;2023-09-08T03:42:52;21.70;41.01
75190;HTU21D;69198;44.694;37.790;2023-09-08T03:43:53;21.94;40.68
75190;HTU21D;69198;44.694;37.790;2023-09-08T03:44:54;22.13;40.12
75190;HTU21D;69198;44.694;37.790;2023-09-08T03:45:56;22.33;39.86
75190;HTU21D;69198;44.694;37.790;2023-09-08T03:46:57;22.54;39.60
75190;HTU21D;69198;44.694;37.790;2023-09-08T03:47:58;22.73;39.30
75190;HTU21D;69198;44.694;37.790;2023-09-08T03:48:59;22.91;38.83
75190;HTU21D;69198;44.694;37.790;2023-09-08T03:50:01;23.00;38.37
75190;HTU21D;69198;44.694;37.790;2023-09-08T03:51:02;23.03;38.05
75190;HTU21D;69198;44.694;37.790;2023-09-08T03:52:04;23.10;37.98
75190;HTU21D;69198;44.694;37.790;2023-09-08T03:53:05;23.18;37.51
75190;HTU21D;69198;44.694;37.790;2023-09-08T03:54:06;23.23;37.44
75190;HTU21D;69198;44.694;37.790;2023-09-08T03:55:08;23.28;37.24
75190;HTU21D;69198;44.694;37.790;2023-09-08T03:56:09;23.32;36.83
75190;HTU21D;69198;44.694;37.790;2023-09-08T03:57:10;23.37;36.55
75190;HTU21D;69198;44.694;37.790;2023-09-08T03:58:11;23.40;36.46
75190;HTU21D;69198;44.694;37.790;2023-09-08T03:59:12;23.41;36.37
75190;HTU21D;69198;44.694;37.790;2023-09-08T04:00:13;23.50;36.25
75190;HTU21D;69198;44.694;37.790;2023-09-08T04:01:23;23.68;36.12
75190;HTU21D;69198;44.694;37.790;2023-09-08T04:02:24;23.91;35.91
75190;HTU21D;69198;44.694;37.790;2023-09-08T04:03:25;24.16;35.52
75190;HTU21D;69198;44.694;37.790;2023-09-08T04:04:26;24.33;35.15
75190;HTU21D;69198;44.694;37.790;2023-09-08T04:05:27;24.36;34.72
75190;HTU21D;69198;44.694;37.790;2023-09-08T04:06:28;24.33;34.47
75190;HTU21D;69198;44.694;37.790;2023-09-08T04:07:29;24.32;34.53
75190;HTU21D;69198;44.694;37.790;2023-09-08T04:08:30;24.36;34.33
75190;HTU21D;69198;44.694;37.790;2023-09-08T04:09:31;24.50;34.35
75190;HTU21D;69198;44.694;37.790;2023-09-08T04:10:32;24.69;34.02
75190;HTU21D;69198;44.694;37.790;2023-09-08T04:11:34;25.00;33.89
75190;HTU21D;69198;44.694;37.790;2023-09-08T04:12:35;25.31;33.47
75190;HTU21D;69198;44.694;37.790;2023-09-08T04:13:36;25.51;33.12
75190;HTU21D;69198;44.694;37.790;2023-09-08T04:14:37;25.67;32.81
75190;HTU21D;69198;44.694;37.790;2023-09-08T04:15:38;25.71;32.09
75190;HTU21D;69198;44.694;37.790;2023-09-08T04:16:39;25.67;32.17
75190;HTU21D;69198;44.694;37.790;2023-09-08T04:17:41;25.61;31.90
75190;HTU21D;69198;44.694;37.790;2023-09-08T04:18:41;25.36;31.81
75190;HTU21D;69198;44.694;37.790;2023-09-08T04:19:43;25.28;32.50
75190;HTU21D;69198;44.694;37.790;2023-09-08T04:20:44;25.42;32.44
75190;HTU21D;69198;44.694;37.790;2023-09-08T04:21:45;25.58;32.36
75190;HTU21D;69198;44.694;37.790;2023-09-08T04:22:46;25.75;32.21
75190;HTU21D;69198;44.694;37.790;2023-09-08T04:23:48;25.91;31.85
75190;HTU21D;69198;44.694;37.790;2023-09-08T04:24:49;26.08;31.69
75190;HTU21D;69198;44.694;37.790;2023-09-08T04:25:50;26.32;31.53
75190;HTU21D;69198;44.694;37.790;2023-09-08T04:26:51;26.64;31.19
75190;HTU21D;69198;44.694;37.790;2023-09-08T04:27:52;26.85;30.66
75190;HTU21D;69198;44.694;37.790;2023-09-08T04:28:53;26.90;30.58
75190;HTU21D;69198;44.694;37.790;2023-09-08T04:29:54;27.04;30.45
75190;HTU21D;69198;44.694;37.790;2023-09-08T04:30:56;27.08;30.25
75190;HTU21D;69198;44.694;37.790;2023-09-08T04:31:57;27.13;30.13
75190;HTU21D;69198;44.694;37.790;2023-09-08T04:32:58;27.16;29.98
75190;HTU21D;69198;44.694;37.790;2023-09-08T04:34:02;27.00;29.80
75190;HTU21D;69198;44.694;37.790;2023-09-08T04:35:03;26.79;29.91
75190;HTU21D;69198;44.694;37.790;2023-09-08T04:36:05;26.57;30.03
75190;HTU21D;69198;44.694;37.790;2023-09-08T04:37:06;26.51;30.11
75190;HTU21D;69198;44.694;37.790;2023-09-08T04:38:10;26.48;30.09
75190;HTU21D;69198;44.694;37.790;2023-09-08T04:39:11;26.41;30.14
75190;HTU21D;69198;44.694;37.790;2023-09-08T04:40:13;26.34;30.25
75190;HTU21D;69198;44.694;37.790;2023-09-08T04:41:15;26.25;30.36
75190;HTU21D;69198;44.694;37.790;2023-09-08T04:42:16;26.17;30.51
75190;HTU21D;69198;44.694;37.790;2023-09-08T04:43:17;26.15;30.63
75190;HTU21D;69198;44.694;37.790;2023-09-08T04:44:18;26.10;30.83
75190;HTU21D;69198;44.694;37.790;2023-09-08T04:45:20;26.22;30.91
75190;HTU21D;69198;44.694;37.790;2023-09-08T04:46:21;26.36;30.75
75190;HTU21D;69198;44.694;37.790;2023-09-08T04:47:22;26.56;30.62
75190;HTU21D;69198;44.694;37.790;2023-09-08T04:48:23;26.69;30.25
75190;HTU21D;69198;44.694;37.790;2023-09-08T04:49:24;26.73;30.20
75190;HTU21D;69198;44.694;37.790;2023-09-08T04:50:26;26.72;30.02
75190;HTU21D;69198;44.694;37.790;2023-09-08T04:51:27;26.63;30.37
75190;HTU21D;69198;44.694;37.790;2023-09-08T04:52:28;26.68;30.42
75190;HTU21D;69198;44.694;37.790;2023-09-08T04:53:29;26.81;30.19
75190;HTU21D;69198;44.694;37.790;2023-09-08T04:54:30;26.80;30.12
75190;HTU21D;69198;44.694;37.790;2023-09-08T04:55:32;26.89;30.07
75190;HTU21D;69198;44.694;37.790;2023-09-08T04:56:33;27.02;29.93
75190;HTU21D;69198;44.694;37.790;2023-09-08T04:57:34;27.12;29.75
75190;HTU21D;69198;44.694;37.790;2023-09-08T04:58:35;27.06;29.43
75190;HTU21D;69198;44.694;37.790;2023-09-08T04:59:36;26.92;29.50
75190;HTU21D;69198;44.694;37.790;2023-09-08T05:00:40;26.81;29.60
75190;HTU21D;69198;44.694;37.790;2023-09-08T05:01:41;26.79;29.74
75190;HTU21D;69198;44.694;37.790;2023-09-08T05:02:44;26.86;29.84
75190;HTU21D;69198;44.694;37.790;2023-09-08T05:03:46;26.97;29.76
75190;HTU21D;69198;44.694;37.790;2023-09-08T05:04:47;27.12;29.64
75190;HTU21D;69198;44.694;37.790;2023-09-08T05:05:48;27.17;29.28
75190;HTU21D;69198;44.694;37.790;2023-09-08T05:06:49;27.06;29.16
75190;HTU21D;69198;44.694;37.790;2023-09-08T05:07:52;26.92;29.33
75190;HTU21D;69198;44.694;37.790;2023-09-08T05:08:58;26.81;29.36
75190;HTU21D;69198;44.694;37.790;2023-09-08T05:10:01;26.66;29.58
75190;HTU21D;69198;44.694;37.790;2023-09-08T05:11:05;26.57;29.44
75190;HTU21D;69198;44.694;37.790;2023-09-08T05:12:06;26.48;29.58
75190;HTU21D;69198;44.694;37.790;2023-09-08T05:13:09;26.47;29.81
75190;HTU21D;69198;44.694;37.790;2023-09-08T05:14:11;26.55;30.10
75190;HTU21D;69198;44.694;37.790;2023-09-08T05:15:12;26.82;30.10
75190;HTU21D;69198;44.694;37.790;2023-09-08T05:16:19;26.89;29.83
75190;HTU21D;69198;44.694;37.790;2023-09-08T05:17:26;26.83;29.60
75190;HTU21D;69198;44.694;37.790;2023-09-08T05:18:27;26.75;30.19
75190;HTU21D;69198;44.694;37.790;2023-09-08T05:19:29;26.75;30.61
75190;HTU21D;69198;44.694;37.790;2023-09-08T05:20:31;26.71;30.70
75190;HTU21D;69198;44.694;37.790;2023-09-08T05:21:36;26.68;30.82
75190;HTU21D;69198;44.694;37.790;2023-09-08T05:22:38;26.55;29.82
75190;HTU21D;69198;44.694;37.790;2023-09-08T05:23:40;26.19;29.92
75190;HTU21D;69198;44.694;37.790;2023-09-08T05:24:42;25.91;30.67
75190;HTU21D;69198;44.694;37.790;2023-09-08T05:25:44;25.77;30.81
75190;HTU21D;69198;44.694;37.790;2023-09-08T05:26:45;25.61;31.15
75190;HTU21D;69198;44.694;37.790;2023-09-08T05:27:46;25.51;31.86
75190;HTU21D;69198;44.694;37.790;2023-09-08T05:28:48;25.48;32.12
75190;HTU21D;69198;44.694;37.790;2023-09-08T05:29:49;25.44;32.01
75190;HTU21D;69198;44.694;37.790;2023-09-08T05:30:54;25.36;32.38
75190;HTU21D;69198;44.694;37.790;2023-09-08T05:31:55;25.21;32.21
75190;HTU21D;69198;44.694;37.790;2023-09-08T05:32:58;25.07;32.68
75190;HTU21D;69198;44.694;37.790;2023-09-08T05:33:59;24.98;32.54
75190;HTU21D;69198;44.694;37.790;2023-09-08T05:35:01;24.86;32.84
75190;HTU21D;69198;44.694;37.790;2023-09-08T05:36:03;24.71;33.34
75190;HTU21D;69198;44.694;37.790;2023-09-08T05:37:04;24.72;33.83
75190;HTU21D;69198;44.694;37.790;2023-09-08T05:38:07;24.72;34.50
75190;HTU21D;69198;44.694;37.790;2023-09-08T05:39:08;24.69;34.44
75190;HTU21D;69198;44.694;37.790;2023-09-08T05:40:09;24.64;34.10
75190;HTU21D;69198;44.694;37.790;2023-09-08T05:41:10;24.61;33.30
75190;HTU21D;69198;44.694;37.790;2023-09-08T05:42:11;24.55;33.92
75190;HTU21D;69198;44.694;37.790;2023-09-08T05:43:13;24.50;33.77
75190;HTU21D;69198;44.694;37.790;2023-09-08T05:44:14;24.53;34.01
75190;HTU21D;69198;44.694;37.790;2023-09-08T05:45:15;24.54;33.76
75190;HTU21D;69198;44.694;37.790;2023-09-08T05:46:17;24.58;34.37
75190;HTU21D;69198;44.694;37.790;2023-09-08T05:47:19;24.58;34.28
75190;HTU21D;69198;44.694;37.790;2023-09-08T05:48:20;24.61;34.63
75190;HTU21D;69198;44.694;37.790;2023-09-08T05:49:21;24.53;34.76
75190;HTU21D;69198;44.694;37.790;2023-09-08T05:50:23;24.62;35.31
75190;HTU21D;69198;44.694;37.790;2023-09-08T05:51:24;24.77;35.29
75190;HTU21D;69198;44.694;37.790;2023-09-08T05:52:27;24.82;34.37
75190;HTU21D;69198;44.694;37.790;2023-09-08T05:53:29;24.80;34.74
75190;HTU21D;69198;44.694;37.790;2023-09-08T05:54:30;24.82;34.47
75190;HTU21D;69198;44.694;37.790;2023-09-08T05:55:31;24.85;34.57
75190;HTU21D;69198;44.694;37.790;2023-09-08T05:56:33;24.83;34.33
75190;HTU21D;69198;44.694;37.790;2023-09-08T05:57:34;24.87;34.16
75190;HTU21D;69198;44.694;37.790;2023-09-08T05:58:35;24.90;34.31
75190;HTU21D;69198;44.694;37.790;2023-09-08T05:59:38;24.87;34.09
75190;HTU21D;69198;44.694;37.790;2023-09-08T06:00:38;24.94;34.55
75190;HTU21D;69198;44.694;37.790;2023-09-08T06:01:39;24.90;34.12
75190;HTU21D;69198;44.694;37.790;2023-09-08T06:02:43;24.93;34.53
75190;HTU21D;69198;44.694;37.790;2023-09-08T06:03:47;25.02;33.93
75190;HTU21D;69198;44.694;37.790;2023-09-08T06:04:48;25.13;33.62
75190;HTU21D;69198;44.694;37.790;2023-09-08T06:05:50;25.24;33.45
75190;HTU21D;69198;44.694;37.790;2023-09-08T06:06:51;25.29;33.54
75190;HTU21D;69198;44.694;37.790;2023-09-08T06:07:52;25.35;33.68
75190;HTU21D;69198;44.694;37.790;2023-09-08T06:08:53;25.34;33.20
75190;HTU21D;69198;44.694;37.790;2023-09-08T06:09:54;25.34;33.50
75190;HTU21D;69198;44.694;37.790;2023-09-08T06:10:55;25.29;33.46
75190;HTU21D;69198;44.694;37.790;2023-09-08T06:11:56;25.28;33.34
75190;HTU21D;69198;44.694;37.790;2023-09-08T06:12:57;25.24;33.67
75190;HTU21D;69198;44.694;37.790;2023-09-08T06:13:58;25.29;33.49
75190;HTU21D;69198;44.694;37.790;2023-09-08T06:15:02;25.38;33.57
75190;HTU21D;69198;44.694;37.790;2023-09-08T06:16:05;25.42;33.44
75190;HTU21D;69198;44.694;37.790;2023-09-08T06:17:06;25.51;33.21
75190;HTU21D;69198;44.694;37.790;2023-09-08T06:18:08;25.59;32.88
75190;HTU21D;69198;44.694;37.790;2023-09-08T06:19:09;25.66;32.96
75190;HTU21D;69198;44.694;37.790;2023-09-08T06:20:11;25.67;32.50